Time;durP1;ratioP1;P1;durP2;ratioP2;P2;SDS_P1;SDS_P2;PMS_P1;PMS_P2;Temp;Humidity;BMP_temperature;BMP_pressure;BME280_temperature;BME280_humidity;BME280_pressure;Samples;Min_cycle;Max_cycle;Signal;HPM_P1;HPM_P2
2021/06/15 00:00:56;;;;;;;4.03;3.70;;;15.20;99.90;;;;;;490515;241;28801;-64
2021/06/15 00:02:57;;;;;;;3.43;3.23;;;15.20;99.90;;;;;;490512;241;28851;-65
2021/06/15 00:04:59;;;;;;;4.40;3.53;;;15.30;99.90;;;;;;490582;241;28915;-64
2021/06/15 00:07:00;;;;;;;4.20;3.50;;;15.30;99.90;;;;;;490671;241;28865;-65
2021/06/15 00:09:01;;;;;;;4.00;3.70;;;15.30;99.90;;;;;;490580;241;28924;-66
2021/06/15 00:11:02;;;;;;;4.07;3.70;;;15.30;99.90;;;;;;490495;241;28787;-64
2021/06/15 00:13:04;;;;;;;5.30;3.27;;;15.20;99.90;;;;;;490533;241;29316;-65
2021/06/15 00:15:05;;;;;;;5.43;3.90;;;15.20;99.90;;;;;;490546;241;29491;-66
2021/06/15 00:17:06;;;;;;;9.83;3.70;;;15.20;99.90;;;;;;490472;242;29437;-65
2021/06/15 00:19:07;;;;;;;6.97;3.27;;;15.20;99.90;;;;;;490504;241;29415;-66
2021/06/15 00:21:09;;;;;;;3.80;3.50;;;15.10;99.90;;;;;;490516;241;28932;-65
2021/06/15 00:23:10;;;;;;;7.10;3.87;;;15.10;99.90;;;;;;490525;241;28838;-65
2021/06/15 00:25:11;;;;;;;4.70;4.00;;;15.10;99.90;;;;;;490545;241;28869;-66
2021/06/15 00:27:12;;;;;;;6.30;4.77;;;15.00;99.90;;;;;;490533;241;28812;-64
2021/06/15 00:29:14;;;;;;;4.97;3.90;;;15.00;99.90;;;;;;490498;241;28931;-66
2021/06/15 00:31:15;;;;;;;5.50;4.30;;;14.90;99.90;;;;;;490544;241;28817;-65
2021/06/15 00:33:16;;;;;;;5.50;4.23;;;15.00;99.90;;;;;;490443;242;28821;-65
2021/06/15 00:35:17;;;;;;;4.37;3.87;;;14.90;99.90;;;;;;490518;241;28841;-65
2021/06/15 00:37:19;;;;;;;3.73;3.43;;;14.90;99.90;;;;;;490512;241;29402;-65
2021/06/15 00:39:20;;;;;;;4.40;3.77;;;14.80;99.90;;;;;;490563;241;29376;-65
2021/06/15 00:41:21;;;;;;;5.67;3.80;;;14.80;99.90;;;;;;490547;241;29601;-64
2021/06/15 00:43:22;;;;;;;5.00;3.83;;;14.80;99.90;;;;;;490476;241;29400;-65
2021/06/15 00:45:24;;;;;;;4.33;3.93;;;14.80;99.90;;;;;;490542;241;28850;-65
2021/06/15 00:47:25;;;;;;;5.00;3.77;;;14.80;99.90;;;;;;490539;241;28805;-65
2021/06/15 00:49:26;;;;;;;4.33;3.93;;;14.80;99.90;;;;;;490519;241;28951;-64
2021/06/15 00:51:27;;;;;;;4.70;3.57;;;14.70;99.90;;;;;;490557;241;28793;-64
2021/06/15 00:53:29;;;;;;;4.23;3.67;;;14.70;99.90;;;;;;490541;241;28826;-65
2021/06/15 00:55:30;;;;;;;3.80;3.50;;;14.70;99.90;;;;;;490534;241;28945;-65
2021/06/15 00:57:31;;;;;;;4.50;4.10;;;14.70;99.90;;;;;;490512;241;28849;-65
2021/06/15 00:59:32;;;;;;;4.40;3.53;;;14.70;99.90;;;;;;490500;241;28944;-65
2021/06/15 01:01:34;;;;;;;4.53;3.77;;;14.60;99.90;;;;;;490548;241;29827;-67
2021/06/15 01:03:35;;;;;;;5.03;4.00;;;14.50;99.90;;;;;;490529;241;29276;-64
2021/06/15 01:05:36;;;;;;;4.63;4.17;;;14.60;99.90;;;;;;490532;241;29357;-65
2021/06/15 01:07:37;;;;;;;4.20;3.80;;;14.50;99.90;;;;;;490529;241;29289;-65
2021/06/15 01:09:39;;;;;;;4.10;3.77;;;14.50;99.90;;;;;;490543;241;28844;-64
2021/06/15 01:11:40;;;;;;;4.87;4.20;;;14.40;99.90;;;;;;490577;241;28921;-67
2021/06/15 01:13:41;;;;;;;6.73;4.00;;;14.40;99.90;;;;;;490537;241;28901;-64
2021/06/15 01:15:42;;;;;;;4.53;3.60;;;14.40;99.90;;;;;;490527;241;28872;-65
2021/06/15 01:17:44;;;;;;;4.30;3.90;;;14.30;99.90;;;;;;490510;241;28898;-64
2021/06/15 01:19:45;;;;;;;5.10;3.70;;;14.20;99.90;;;;;;490570;241;28825;-64
2021/06/15 01:21:46;;;;;;;4.03;3.73;;;14.20;99.90;;;;;;490554;241;28864;-66
2021/06/15 01:23:47;;;;;;;6.23;4.37;;;14.20;99.90;;;;;;490514;241;28900;-64
2021/06/15 01:25:49;;;;;;;3.70;3.40;;;14.20;99.90;;;;;;490510;241;28869;-64
2021/06/15 01:27:50;;;;;;;4.57;3.70;;;14.20;99.90;;;;;;490515;241;30055;-64
2021/06/15 01:29:51;;;;;;;5.03;3.90;;;14.20;99.90;;;;;;490547;241;29351;-64
2021/06/15 01:31:52;;;;;;;5.00;3.73;;;14.20;99.90;;;;;;490539;241;29345;-66
2021/06/15 01:33:54;;;;;;;4.07;3.67;;;14.20;99.90;;;;;;490513;241;28928;-65
2021/06/15 01:35:55;;;;;;;4.17;3.50;;;14.10;99.90;;;;;;490521;241;28848;-64
2021/06/15 01:37:56;;;;;;;4.07;3.67;;;14.20;99.90;;;;;;490528;241;28827;-64
2021/06/15 01:39:57;;;;;;;5.10;3.50;;;14.20;99.90;;;;;;490538;241;28796;-64
2021/06/15 01:41:59;;;;;;;4.80;3.70;;;14.10;99.90;;;;;;490526;241;28965;-65
2021/06/15 01:44:00;;;;;;;3.83;3.43;;;14.10;99.90;;;;;;490470;241;28522;-65
2021/06/15 01:46:02;;;;;;;3.87;3.57;;;14.10;99.90;;;;;;490537;241;28840;-65
2021/06/15 01:48:06;;;;;;;4.90;3.80;;;14.10;99.90;;;;;;490517;241;29256;-66
2021/06/15 01:50:06;;;;;;;5.43;3.60;;;14.00;99.90;;;;;;490327;241;28805;-64
2021/06/15 01:52:05;;;;;;;4.93;3.60;;;14.10;99.90;;;;;;490419;241;29311;-65
2021/06/15 01:54:09;;;;;;;5.13;4.23;;;14.00;99.90;;;;;;490540;241;29243;-64
2021/06/15 01:56:10;;;;;;;4.53;3.50;;;14.00;99.90;;;;;;490470;242;29253;-65
2021/06/15 01:58:12;;;;;;;4.37;3.70;;;14.00;99.90;;;;;;490543;241;29273;-64
2021/06/15 02:00:13;;;;;;;5.10;3.90;;;14.00;99.90;;;;;;490529;241;29320;-65
2021/06/15 02:02:14;;;;;;;6.13;3.53;;;14.10;99.90;;;;;;490552;241;28886;-64
2021/06/15 02:04:15;;;;;;;6.00;3.83;;;14.00;99.90;;;;;;490516;242;28836;-64
2021/06/15 02:06:19;;;;;;;5.10;3.80;;;14.00;99.90;;;;;;490539;241;28827;-64
2021/06/15 02:08:18;;;;;;;6.80;4.37;;;14.00;99.90;;;;;;490451;242;28924;-65
2021/06/15 02:10:19;;;;;;;5.87;3.97;;;14.00;99.90;;;;;;490568;241;28960;-64
2021/06/15 02:12:20;;;;;;;4.60;3.67;;;13.90;99.90;;;;;;490515;241;28813;-64
2021/06/15 02:14:27;;;;;;;5.70;3.60;;;13.80;99.90;;;;;;490524;241;28837;-64
2021/06/15 02:16:26;;;;;;;3.97;3.67;;;13.80;99.90;;;;;;490343;241;28952;-64
2021/06/15 02:18:27;;;;;;;4.87;4.37;;;13.80;99.90;;;;;;490558;241;28935;-66
2021/06/15 02:20:28;;;;;;;5.00;4.13;;;13.80;99.90;;;;;;490472;242;28374;-64
2021/06/15 02:22:30;;;;;;;5.50;3.83;;;13.70;99.90;;;;;;490272;242;28667;-64
2021/06/15 02:24:31;;;;;;;4.43;3.90;;;13.80;99.90;;;;;;490501;241;28907;-64
2021/06/15 02:26:32;;;;;;;4.07;3.33;;;13.70;99.90;;;;;;490552;241;28912;-64
2021/06/15 02:28:33;;;;;;;4.50;4.10;;;13.60;99.90;;;;;;490580;241;29319;-67
2021/06/15 02:30:35;;;;;;;5.33;3.90;;;13.70;99.90;;;;;;490552;241;29228;-65
2021/06/15 02:32:36;;;;;;;5.93;3.97;;;13.60;99.90;;;;;;490535;241;29356;-65
2021/06/15 02:34:37;;;;;;;5.07;3.90;;;13.60;99.90;;;;;;490530;241;28590;-64
2021/06/15 02:36:40;;;;;;;5.57;4.43;;;13.60;99.90;;;;;;490536;241;28838;-65
2021/06/15 02:38:40;;;;;;;4.33;3.93;;;13.50;99.90;;;;;;490407;242;28841;-66
2021/06/15 02:40:41;;;;;;;5.93;4.73;;;13.60;99.90;;;;;;490583;241;28806;-64
2021/06/15 02:42:43;;;;;;;4.40;3.63;;;13.50;99.90;;;;;;490546;241;28868;-64
2021/06/15 02:44:43;;;;;;;5.03;4.53;;;13.50;99.90;;;;;;490555;241;28825;-64
2021/06/15 02:46:45;;;;;;;4.53;4.13;;;13.50;99.90;;;;;;490523;241;28908;-64
2021/06/15 02:48:46;;;;;;;4.17;3.77;;;13.50;99.90;;;;;;490585;241;28845;-67
2021/06/15 02:50:47;;;;;;;6.23;3.70;;;13.50;99.90;;;;;;490560;241;28614;-64
2021/06/15 02:52:48;;;;;;;4.70;4.07;;;13.50;99.90;;;;;;490563;241;29364;-65
2021/06/15 02:54:50;;;;;;;5.37;4.20;;;13.40;99.90;;;;;;490508;241;29005;-64
2021/06/15 02:56:51;;;;;;;9.10;4.70;;;13.50;99.90;;;;;;490493;241;29415;-64
2021/06/15 02:58:52;;;;;;;3.80;3.40;;;13.50;99.90;;;;;;490541;241;29414;-66
2021/06/15 03:00:53;;;;;;;4.13;3.53;;;13.50;99.90;;;;;;490542;241;28923;-65
2021/06/15 03:02:55;;;;;;;4.60;4.10;;;13.50;99.90;;;;;;490534;241;28829;-65
2021/06/15 03:04:56;;;;;;;3.53;3.23;;;13.50;99.90;;;;;;490536;241;28805;-64
2021/06/15 03:06:57;;;;;;;4.60;3.77;;;13.50;99.90;;;;;;490535;241;28838;-64
2021/06/15 03:08:58;;;;;;;5.53;4.80;;;13.50;99.90;;;;;;490574;241;28557;-64
2021/06/15 03:11:00;;;;;;;4.17;3.87;;;13.50;99.90;;;;;;490542;242;29041;-64
2021/06/15 03:13:01;;;;;;;3.93;3.60;;;13.50;99.90;;;;;;490548;241;28846;-65
2021/06/15 03:15:02;;;;;;;8.20;4.17;;;13.50;99.90;;;;;;490488;241;28797;-65
2021/06/15 03:17:03;;;;;;;4.40;3.70;;;13.50;99.90;;;;;;490551;241;28920;-65
2021/06/15 03:19:05;;;;;;;4.57;3.97;;;13.50;99.90;;;;;;490520;241;29313;-65
2021/06/15 03:21:06;;;;;;;4.07;3.77;;;13.50;99.90;;;;;;490541;241;29031;-64
2021/06/15 03:23:07;;;;;;;4.63;4.17;;;13.50;99.90;;;;;;490571;241;29055;-65
2021/06/15 03:25:08;;;;;;;4.10;3.67;;;13.50;99.90;;;;;;490515;241;28499;-65
2021/06/15 03:27:10;;;;;;;8.63;4.63;;;13.40;99.90;;;;;;490528;241;28587;-65
2021/06/15 03:29:11;;;;;;;5.07;4.50;;;13.40;99.90;;;;;;490500;241;28850;-66
2021/06/15 03:31:12;;;;;;;4.60;4.07;;;13.50;99.90;;;;;;490517;241;28820;-64
2021/06/15 03:33:13;;;;;;;5.80;4.40;;;13.50;99.90;;;;;;490521;241;28854;-66
2021/06/15 03:35:15;;;;;;;5.83;4.23;;;13.60;99.90;;;;;;490423;241;28524;-66
2021/06/15 03:37:16;;;;;;;5.47;3.73;;;13.50;99.90;;;;;;484238;241;28473;-66
2021/06/15 03:39:17;;;;;;;4.50;4.10;;;13.40;99.90;;;;;;477360;249;28879;-66
2021/06/15 03:41:18;;;;;;;5.53;4.60;;;13.50;99.90;;;;;;477348;249;28834;-65
2021/06/15 03:43:20;;;;;;;5.97;4.37;;;13.50;99.90;;;;;;477393;249;28918;-66
2021/06/15 03:45:21;;;;;;;4.47;4.07;;;13.50;99.90;;;;;;477359;249;30120;-66
2021/06/15 03:47:22;;;;;;;4.77;4.27;;;13.60;99.90;;;;;;477396;249;30257;-65
2021/06/15 03:49:23;;;;;;;4.43;4.10;;;13.50;99.90;;;;;;477373;249;28565;-66
2021/06/15 03:51:25;;;;;;;8.17;4.33;;;13.50;99.90;;;;;;477475;247;28527;-66
2021/06/15 03:53:28;;;;;;;5.13;4.30;;;13.50;99.90;;;;;;477422;249;28556;-66
2021/06/15 03:55:29;;;;;;;6.77;4.50;;;13.50;99.90;;;;;;477297;249;28846;-65
2021/06/15 03:57:28;;;;;;;4.33;3.93;;;13.50;99.90;;;;;;477316;249;28444;-66
2021/06/15 03:59:31;;;;;;;6.97;4.43;;;13.50;99.90;;;;;;477450;249;28542;-66
2021/06/15 04:01:31;;;;;;;6.37;3.93;;;13.50;99.90;;;;;;477330;249;28890;-65
2021/06/15 04:03:32;;;;;;;6.10;4.60;;;13.50;99.90;;;;;;477413;249;28875;-65
2021/06/15 04:05:33;;;;;;;4.60;3.97;;;13.50;99.90;;;;;;477425;249;29295;-65
2021/06/15 04:07:35;;;;;;;5.70;4.40;;;13.40;99.90;;;;;;477593;247;29259;-65
2021/06/15 04:09:38;;;;;;;5.50;3.97;;;13.50;99.90;;;;;;477431;249;29386;-66
2021/06/15 04:11:37;;;;;;;5.07;3.90;;;13.40;99.90;;;;;;477303;249;29410;-65
2021/06/15 04:13:38;;;;;;;4.63;4.10;;;13.50;99.90;;;;;;477386;249;28585;-66
2021/06/15 04:15:40;;;;;;;4.40;4.00;;;13.50;99.90;;;;;;477388;249;28965;-65
2021/06/15 04:17:41;;;;;;;5.20;3.70;;;13.60;99.90;;;;;;477405;249;28885;-65
2021/06/15 04:19:42;;;;;;;5.00;3.90;;;13.60;99.90;;;;;;477412;249;28874;-66
2021/06/15 04:21:43;;;;;;;6.20;4.03;;;13.70;99.90;;;;;;477428;249;28901;-66
2021/06/15 04:23:45;;;;;;;5.73;4.27;;;13.70;99.90;;;;;;477414;249;28971;-66
2021/06/15 04:25:46;;;;;;;3.97;3.50;;;13.70;99.90;;;;;;477439;249;28843;-65
2021/06/15 04:27:47;;;;;;;5.00;4.00;;;13.70;99.90;;;;;;477494;247;28513;-66
2021/06/15 04:29:48;;;;;;;8.27;4.00;;;13.80;99.90;;;;;;477419;249;28948;-66
2021/06/15 04:31:50;;;;;;;5.33;3.67;;;13.80;99.90;;;;;;477438;249;29307;-66
2021/06/15 04:33:51;;;;;;;6.03;4.57;;;13.80;99.90;;;;;;477447;249;29517;-65
2021/06/15 04:35:52;;;;;;;3.87;3.50;;;13.80;99.90;;;;;;477438;249;29420;-67
2021/06/15 04:37:54;;;;;;;7.50;4.37;;;13.80;99.90;;;;;;477409;248;29371;-65
2021/06/15 04:39:55;;;;;;;3.93;3.63;;;13.90;99.90;;;;;;477444;249;28869;-66
2021/06/15 04:41:56;;;;;;;4.87;4.37;;;13.90;99.90;;;;;;477446;249;28923;-66
2021/06/15 04:43:57;;;;;;;4.40;3.97;;;13.90;99.90;;;;;;477445;248;28869;-66
2021/06/15 04:45:58;;;;;;;7.53;4.73;;;14.00;99.90;;;;;;477421;249;29010;-66
2021/06/15 04:48:00;;;;;;;7.70;4.60;;;14.10;99.90;;;;;;477429;249;28863;-66
2021/06/15 04:50:01;;;;;;;5.80;3.90;;;14.20;99.90;;;;;;477487;249;28907;-66
2021/06/15 04:52:02;;;;;;;5.13;4.33;;;14.20;99.90;;;;;;477409;249;28839;-66
2021/06/15 04:54:03;;;;;;;8.30;4.60;;;14.30;99.90;;;;;;477391;249;28956;-66
2021/06/15 04:56:05;;;;;;;4.27;3.87;;;14.30;99.90;;;;;;477661;247;29460;-67
2021/06/15 04:58:06;;;;;;;5.93;4.80;;;14.40;99.90;;;;;;477411;249;29380;-65
2021/06/15 05:00:07;;;;;;;5.57;4.00;;;14.50;99.90;;;;;;477406;249;29365;-66
2021/06/15 05:02:08;;;;;;;4.43;4.03;;;14.50;99.90;;;;;;477579;247;29302;-66
2021/06/15 05:04:10;;;;;;;4.30;3.90;;;14.60;99.90;;;;;;477424;249;28866;-66
2021/06/15 05:06:11;;;;;;;7.20;4.47;;;14.70;99.90;;;;;;477391;249;28891;-67
2021/06/15 05:08:16;;;;;;;7.10;3.90;;;14.80;99.90;;;;;;477416;249;28942;-65
2021/06/15 05:10:13;;;;;;;4.40;4.00;;;14.90;99.90;;;;;;477023;248;28969;-66
2021/06/15 05:12:15;;;;;;;5.40;4.23;;;15.00;99.90;;;;;;477367;249;28855;-65
2021/06/15 05:14:16;;;;;;;7.70;3.80;;;15.10;99.90;;;;;;477277;249;28845;-64
2021/06/15 05:16:17;;;;;;;10.53;4.97;;;15.20;99.90;;;;;;477305;249;28949;-65
2021/06/15 05:18:18;;;;;;;6.17;4.50;;;15.20;99.90;;;;;;477226;249;28853;-66
2021/06/15 05:20:20;;;;;;;4.67;3.77;;;15.20;99.90;;;;;;477169;249;29449;-66
2021/06/15 05:22:21;;;;;;;5.50;4.20;;;15.20;99.90;;;;;;477389;249;29377;-67
2021/06/15 05:24:22;;;;;;;5.13;4.00;;;15.20;99.90;;;;;;477428;249;29334;-65
2021/06/15 05:26:23;;;;;;;7.73;4.23;;;15.30;99.90;;;;;;477404;249;29387;-66
2021/06/15 05:28:25;;;;;;;7.13;4.50;;;15.40;99.90;;;;;;477416;249;28842;-66
2021/06/15 05:30:28;;;;;;;5.83;4.47;;;15.50;99.90;;;;;;477627;247;28882;-66
2021/06/15 05:32:27;;;;;;;7.30;4.37;;;15.60;99.90;;;;;;477333;249;28885;-67
2021/06/15 05:34:28;;;;;;;6.80;4.60;;;15.70;99.90;;;;;;477429;248;28898;-65
2021/06/15 05:36:30;;;;;;;5.13;4.30;;;15.70;99.90;;;;;;477406;249;28888;-67
2021/06/15 05:38:31;;;;;;;4.60;4.10;;;15.70;99.90;;;;;;477395;249;28868;-66
2021/06/15 05:40:32;;;;;;;5.40;4.27;;;15.80;99.90;;;;;;477407;249;28969;-66
2021/06/15 05:42:34;;;;;;;5.10;4.17;;;15.90;99.90;;;;;;477396;249;28882;-68
2021/06/15 05:44:35;;;;;;;3.80;3.50;;;15.90;99.90;;;;;;477432;247;29305;-66
2021/06/15 05:46:36;;;;;;;4.53;4.13;;;16.00;99.90;;;;;;477384;249;29339;-66
2021/06/15 05:48:37;;;;;;;5.23;3.90;;;16.10;99.90;;;;;;477427;249;29294;-66
2021/06/15 05:50:39;;;;;;;6.07;4.40;;;16.20;99.90;;;;;;477424;249;29459;-66
2021/06/15 05:52:40;;;;;;;4.47;4.07;;;16.20;99.90;;;;;;477411;249;28927;-67
2021/06/15 05:54:41;;;;;;;4.47;4.07;;;16.30;99.90;;;;;;477421;249;28977;-66
2021/06/15 05:56:42;;;;;;;5.03;4.53;;;16.40;99.90;;;;;;477405;249;28879;-66
2021/06/15 05:58:44;;;;;;;4.77;4.30;;;16.50;99.90;;;;;;477407;249;28881;-66
2021/06/15 06:00:49;;;;;;;4.30;3.90;;;16.50;99.90;;;;;;477433;248;28874;-66
2021/06/15 06:02:46;;;;;;;4.30;3.90;;;16.60;99.90;;;;;;477276;248;28953;-67
2021/06/15 06:05:01;;;;;;;4.53;4.13;;;16.70;99.90;;;;;;477435;249;28854;-66
2021/06/15 06:09:08;;;;;;;4.80;4.07;;;16.90;99.90;;;;;;477634;246;28899;-65
2021/06/15 06:11:09;;;;;;;7.80;4.50;;;16.90;99.90;;;;;;477444;249;28843;-65
2021/06/15 06:13:14;;;;;;;4.50;4.00;;;17.00;99.90;;;;;;477518;247;28895;-66
2021/06/15 06:15:16;;;;;;;4.30;3.90;;;17.10;99.90;;;;;;477532;247;28843;-66
2021/06/15 06:17:16;;;;;;;4.37;3.97;;;17.20;99.90;;;;;;477398;249;29310;-66
2021/06/15 06:19:17;;;;;;;4.40;3.93;;;17.20;99.90;;;;;;477421;247;29354;-66
2021/06/15 06:21:19;;;;;;;3.80;3.40;;;17.40;99.90;;;;;;477458;249;29465;-67
2021/06/15 06:23:20;;;;;;;3.73;3.47;;;17.40;99.90;;;;;;477464;249;29404;-66
2021/06/15 06:25:21;;;;;;;6.67;3.40;;;17.60;99.90;;;;;;477473;249;28986;-66
2021/06/15 06:27:22;;;;;;;5.43;3.90;;;17.70;99.90;;;;;;477444;249;28825;-67
2021/06/15 06:29:24;;;;;;;4.23;3.83;;;17.70;99.90;;;;;;477436;249;28866;-65
2021/06/15 06:31:25;;;;;;;5.73;4.50;;;17.80;99.90;;;;;;477454;249;28949;-68
2021/06/15 06:33:26;;;;;;;6.57;3.97;;;17.90;99.90;;;;;;477424;249;28837;-66
2021/06/15 06:35:27;;;;;;;5.63;4.13;;;18.50;99.90;;;;;;477442;249;28887;-66
2021/06/15 06:37:29;;;;;;;4.40;3.67;;;18.80;99.90;;;;;;477535;247;28830;-66
2021/06/15 06:39:30;;;;;;;6.77;4.10;;;19.00;99.90;;;;;;477431;249;28940;-66
2021/06/15 06:41:31;;;;;;;5.27;3.77;;;18.90;99.90;;;;;;477344;249;28896;-67
2021/06/15 06:43:32;;;;;;;4.00;3.40;;;19.10;99.90;;;;;;477379;248;29325;-66
2021/06/15 06:45:34;;;;;;;4.37;3.57;;;19.30;99.90;;;;;;477374;249;29338;-67
2021/06/15 06:47:35;;;;;;;5.70;3.60;;;19.30;99.90;;;;;;477343;249;29416;-66
2021/06/15 06:49:36;;;;;;;4.33;3.77;;;19.20;99.90;;;;;;477340;249;28936;-66
2021/06/15 06:51:37;;;;;;;3.97;3.50;;;19.40;99.90;;;;;;477335;249;28907;-67
2021/06/15 06:53:39;;;;;;;4.13;3.40;;;19.40;99.90;;;;;;477356;249;28841;-67
2021/06/15 06:55:40;;;;;;;4.83;3.13;;;19.40;99.90;;;;;;477358;249;28991;-67
2021/06/15 06:57:41;;;;;;;4.33;3.40;;;19.50;99.90;;;;;;477338;249;28893;-66
2021/06/15 06:59:42;;;;;;;5.70;3.53;;;19.60;99.90;;;;;;477329;249;28886;-66
2021/06/15 07:01:44;;;;;;;4.90;3.20;;;19.70;99.90;;;;;;477365;249;28889;-67
2021/06/15 07:03:45;;;;;;;3.70;2.50;;;19.80;99.90;;;;;;477364;249;28845;-66
2021/06/15 07:05:46;;;;;;;4.57;3.50;;;19.80;99.90;;;;;;477360;249;28867;-64
2021/06/15 07:07:48;;;;;;;4.83;3.20;;;19.80;99.90;;;;;;477358;248;29283;-66
2021/06/15 07:09:49;;;;;;;4.80;3.10;;;19.90;99.90;;;;;;477352;248;29308;-66
2021/06/15 07:11:50;;;;;;;10.03;3.50;;;20.00;99.90;;;;;;477390;249;29330;-67
2021/06/15 07:13:51;;;;;;;6.53;3.60;;;20.00;99.90;;;;;;477357;249;28962;-66
2021/06/15 07:15:52;;;;;;;5.50;3.60;;;20.10;99.90;;;;;;477341;248;28895;-67
2021/06/15 07:17:54;;;;;;;3.17;2.80;;;20.30;99.90;;;;;;477348;249;28937;-66
2021/06/15 07:19:55;;;;;;;4.23;2.93;;;20.40;99.90;;;;;;477374;249;28941;-66
2021/06/15 07:21:56;;;;;;;7.20;3.40;;;20.40;99.90;;;;;;477361;249;28835;-67
2021/06/15 07:23:57;;;;;;;3.53;2.90;;;20.60;99.90;;;;;;477345;249;28929;-66
2021/06/15 07:25:59;;;;;;;4.37;3.30;;;20.60;99.90;;;;;;477350;249;28893;-66
2021/06/15 07:28:00;;;;;;;7.60;3.60;;;20.70;99.90;;;;;;477374;249;28923;-66
2021/06/15 07:30:01;;;;;;;4.03;3.03;;;20.70;99.90;;;;;;477337;249;29386;-66
2021/06/15 07:32:02;;;;;;;4.03;3.07;;;20.80;99.90;;;;;;477349;249;29373;-67
2021/06/15 07:34:04;;;;;;;3.20;2.90;;;20.90;99.90;;;;;;477354;249;29446;-65
2021/06/15 07:36:05;;;;;;;4.37;2.90;;;21.00;99.90;;;;;;477372;249;29431;-66
2021/06/15 07:38:06;;;;;;;3.70;2.70;;;21.10;99.90;;;;;;477343;249;28873;-66
2021/06/15 07:40:07;;;;;;;3.60;3.00;;;21.10;99.90;;;;;;479179;246;28918;-66
2021/06/15 07:42:09;;;;;;;4.80;3.07;;;21.10;99.90;;;;;;482699;246;28877;-67
2021/06/15 07:44:10;;;;;;;4.07;2.80;;;21.30;99.90;;;;;;482711;246;28816;-66
2021/06/15 07:46:13;;;;;;;4.17;2.70;;;21.40;99.90;;;;;;482723;246;28901;-66
2021/06/15 07:48:12;;;;;;;4.97;3.10;;;21.50;99.90;;;;;;482599;246;28727;-66
2021/06/15 07:50:14;;;;;;;4.10;2.87;;;21.60;99.90;;;;;;482731;246;28814;-66
2021/06/15 07:52:15;;;;;;;6.27;2.70;;;21.60;99.90;;;;;;482714;246;28774;-67
2021/06/15 07:54:16;;;;;;;4.07;2.60;;;21.70;99.90;;;;;;482700;246;29195;-66
2021/06/15 07:56:17;;;;;;;3.97;2.80;;;21.90;99.90;;;;;;482700;246;29342;-66
2021/06/15 07:58:19;;;;;;;3.77;2.80;;;22.10;99.90;;;;;;482721;246;29269;-66
2021/06/15 08:00:20;;;;;;;5.47;2.83;;;22.10;99.90;;;;;;482686;246;29270;-66
2021/06/15 08:02:21;;;;;;;3.97;2.90;;;22.10;99.90;;;;;;482656;246;28854;-67
2021/06/15 08:04:23;;;;;;;3.27;2.97;;;22.20;99.90;;;;;;482639;246;28751;-65
2021/06/15 08:06:24;;;;;;;3.33;3.00;;;22.20;99.90;;;;;;482642;246;28877;-66
2021/06/15 08:08:25;;;;;;;3.70;2.93;;;22.20;99.90;;;;;;482672;246;28735;-66
2021/06/15 08:10:26;;;;;;;3.30;2.83;;;22.30;99.90;;;;;;482652;246;28747;-66
2021/06/15 08:12:27;;;;;;;3.57;2.93;;;22.40;99.90;;;;;;482689;246;28775;-67
2021/06/15 08:14:29;;;;;;;4.77;3.20;;;22.50;99.90;;;;;;482683;246;28836;-66
2021/06/15 08:16:30;;;;;;;7.20;2.80;;;22.50;99.90;;;;;;482700;246;28783;-66
2021/06/15 08:18:31;;;;;;;3.33;3.00;;;22.50;99.90;;;;;;482688;246;29204;-66
2021/06/15 08:20:32;;;;;;;13.90;2.90;;;22.70;99.90;;;;;;482670;246;29224;-66
2021/06/15 08:22:34;;;;;;;4.37;3.60;;;22.50;99.90;;;;;;482681;243;29328;-68
2021/06/15 08:24:35;;;;;;;4.73;3.10;;;22.60;99.90;;;;;;482672;246;28744;-66
2021/06/15 08:26:36;;;;;;;3.43;3.10;;;22.60;99.90;;;;;;482696;246;28881;-67
2021/06/15 08:28:37;;;;;;;6.13;2.60;;;22.70;99.90;;;;;;482684;246;28731;-65
2021/06/15 08:30:39;;;;;;;4.00;3.00;;;22.60;99.90;;;;;;482662;246;28849;-67
2021/06/15 08:32:40;;;;;;;6.03;2.67;;;22.60;99.90;;;;;;482678;246;28758;-66
2021/06/15 08:34:41;;;;;;;4.40;2.70;;;22.70;99.90;;;;;;482694;246;28874;-66
2021/06/15 08:36:42;;;;;;;11.03;3.33;;;22.90;99.90;;;;;;482702;246;28790;-67
2021/06/15 08:38:44;;;;;;;3.33;2.90;;;23.10;99.90;;;;;;482665;246;28758;-66
2021/06/15 08:40:45;;;;;;;5.07;3.23;;;23.00;99.90;;;;;;482666;246;28875;-66
2021/06/15 08:42:46;;;;;;;3.83;2.70;;;22.90;99.90;;;;;;482709;246;30139;-66
2021/06/15 08:44:47;;;;;;;3.90;3.20;;;23.00;99.90;;;;;;482674;246;29207;-66
2021/06/15 08:46:49;;;;;;;6.20;3.17;;;23.00;99.90;;;;;;482676;246;29274;-67
2021/06/15 08:48:50;;;;;;;5.30;2.90;;;23.20;99.90;;;;;;482679;246;28735;-67
2021/06/15 08:50:51;;;;;;;7.93;3.90;;;23.30;99.90;;;;;;482708;246;28767;-66
2021/06/15 08:52:52;;;;;;;3.90;3.23;;;23.30;99.90;;;;;;482690;246;28737;-66
2021/06/15 08:54:54;;;;;;;4.33;3.70;;;23.30;99.90;;;;;;482696;246;28736;-65
2021/06/15 08:56:55;;;;;;;3.73;2.90;;;23.40;99.90;;;;;;482670;246;28849;-68
2021/06/15 08:58:56;;;;;;;7.33;4.13;;;23.50;99.90;;;;;;482711;246;28826;-66
2021/06/15 09:00:57;;;;;;;4.80;3.30;;;23.50;99.90;;;;;;482692;246;28792;-66
2021/06/15 09:02:59;;;;;;;3.63;3.33;;;23.50;99.90;;;;;;482670;246;28763;-65
2021/06/15 09:05:00;;;;;;;4.17;3.00;;;23.50;99.90;;;;;;482703;246;28739;-66
2021/06/15 09:07:01;;;;;;;3.50;3.00;;;23.80;99.90;;;;;;482681;246;29255;-67
2021/06/15 09:09:02;;;;;;;5.17;3.60;;;23.80;99.90;;;;;;482706;246;29273;-66
2021/06/15 09:11:04;;;;;;;3.93;3.20;;;23.90;99.90;;;;;;482697;246;29237;-66
2021/06/15 09:13:05;;;;;;;3.70;3.40;;;23.90;99.90;;;;;;482683;246;28862;-66
2021/06/15 09:15:09;;;;;;;4.20;3.50;;;23.80;99.90;;;;;;482604;246;28731;-66
2021/06/15 09:17:07;;;;;;;5.07;3.30;;;23.80;99.90;;;;;;482565;246;28779;-68
2021/06/15 09:19:09;;;;;;;4.30;3.30;;;23.90;99.90;;;;;;482668;246;28807;-66
2021/06/15 09:21:10;;;;;;;7.10;3.00;;;24.00;99.90;;;;;;482688;246;28764;-67
2021/06/15 09:23:15;;;;;;;3.90;2.87;;;24.20;99.90;;;;;;482664;246;28872;-67
2021/06/15 09:25:13;;;;;;;4.00;3.00;;;24.20;99.90;;;;;;482470;246;28754;-66
2021/06/15 09:27:14;;;;;;;8.07;3.07;;;24.20;99.90;;;;;;482656;246;28775;-67
2021/06/15 09:29:15;;;;;;;4.03;3.07;;;24.00;99.90;;;;;;482683;246;28749;-66
2021/06/15 09:31:16;;;;;;;3.00;2.80;;;24.00;99.90;;;;;;482692;246;29238;-66
2021/06/15 09:33:17;;;;;;;3.23;2.93;;;24.00;99.90;;;;;;482672;243;29340;-66
2021/06/15 09:35:19;;;;;;;3.20;2.63;;;24.00;99.90;;;;;;482691;246;29201;-66
2021/06/15 09:37:20;;;;;;;2.90;2.70;;;24.00;99.90;;;;;;482669;246;28875;-67
2021/06/15 09:39:21;;;;;;;6.27;3.13;;;24.00;99.90;;;;;;482655;246;28769;-66
2021/06/15 09:41:23;;;;;;;4.30;2.80;;;24.10;99.90;;;;;;482682;246;28772;-66
2021/06/15 09:43:24;;;;;;;3.10;2.73;;;24.40;99.90;;;;;;482638;246;28760;-66
2021/06/15 09:45:25;;;;;;;3.60;3.00;;;24.60;99.90;;;;;;482688;246;28735;-65
2021/06/15 09:47:26;;;;;;;4.20;2.50;;;24.50;99.90;;;;;;482690;246;28850;-68
2021/06/15 09:49:28;;;;;;;7.80;3.03;;;24.40;99.90;;;;;;482704;246;28756;-67
2021/06/15 09:51:29;;;;;;;5.37;2.73;;;24.30;98.80;;;;;;482694;246;28796;-67
2021/06/15 09:53:30;;;;;;;3.57;2.40;;;24.30;99.60;;;;;;482650;246;28747;-66
2021/06/15 09:55:31;;;;;;;3.33;2.63;;;24.30;97.50;;;;;;482685;246;29305;-66
2021/06/15 09:57:33;;;;;;;3.77;2.47;;;24.40;97.60;;;;;;482612;246;29238;-66
2021/06/15 09:59:34;;;;;;;2.63;2.40;;;24.30;99.70;;;;;;482685;246;29201;-66
2021/06/15 10:01:35;;;;;;;3.13;2.43;;;24.20;98.80;;;;;;482679;246;28774;-66
2021/06/15 10:03:36;;;;;;;7.33;3.13;;;24.20;97.80;;;;;;482666;246;28771;-66
2021/06/15 10:05:38;;;;;;;4.80;2.27;;;24.30;98.00;;;;;;482676;246;28819;-66
2021/06/15 10:07:39;;;;;;;4.40;2.80;;;24.30;99.00;;;;;;482669;246;28848;-67
2021/06/15 10:09:41;;;;;;;3.67;2.43;;;24.30;99.90;;;;;;482672;246;28755;-66
2021/06/15 10:11:45;;;;;;;3.00;2.40;;;24.20;99.10;;;;;;482640;246;28806;-66
2021/06/15 10:13:43;;;;;;;4.70;2.70;;;24.00;99.70;;;;;;482436;246;28838;-66
2021/06/15 10:15:44;;;;;;;3.23;2.47;;;24.20;99.90;;;;;;482693;246;28827;-66
2021/06/15 10:17:46;;;;;;;2.60;2.40;;;24.20;99.30;;;;;;482666;246;28778;-68
2021/06/15 10:19:46;;;;;;;2.73;2.33;;;24.40;97.40;;;;;;482604;246;29326;-66
2021/06/15 10:21:48;;;;;;;5.13;2.80;;;24.50;97.60;;;;;;482678;246;29303;-67
2021/06/15 10:23:49;;;;;;;4.47;2.40;;;24.60;96.90;;;;;;482690;246;29240;-66
2021/06/15 10:25:50;;;;;;;3.63;2.57;;;24.50;97.50;;;;;;482671;246;28766;-67
2021/06/15 10:27:51;;;;;;;2.87;2.37;;;24.50;98.60;;;;;;482633;246;28779;-68
2021/06/15 10:29:53;;;;;;;5.53;3.30;;;24.70;97.00;;;;;;482637;246;28887;-66
2021/06/15 10:31:54;;;;;;;3.40;3.10;;;24.60;97.90;;;;;;482430;246;28886;-66